Weather History for Glenwood, MN

Change the Weather History Date:

Friday, November 25, 2011

  Actual Average Record
Temperature  
Mean Temperature 38 °F -  
Max Temperature 42 °F 34 °F 54 °F (1960)
Min Temperature 33 °F 17 °F -5 °F (1951)
Degree Days  
Heating Degree Days 28    
Moisture  
Dew Point 35 °F    
Average Humidity 87    
Maximum Humidity 93    
Minimum Humidity 81    
Precipitation  
Precipitation 0.00 in - - ()
Sea Level Pressure  
Sea Level Pressure 29.63 in    
Wind  
Wind Speed 5 mph (NE)    
Max Wind Speed 14 mph    
Max Gust Speed 10 mph    
Visibility 6 miles    
Events      
Averages and records for this station are not official NWS values.
T = Trace of Precipitation, MM = Missing Value Source: NWS Daily Summary

Daily Weather History Graph

Daily Weather History Graph

Search for Another Location

Airport:

Trip Planner

Search our weather history database for the weather conditions in past years. The results will help you decide how hot, cold, wet, or windy it might be!

Date:

Astronomy

Nov. 25, 2011 Rise Set
Actual Time 7:33 AM CST 4:42 PM CST
Civil Twilight 7:00 AM CST 5:15 PM CST
Nautical Twilight 6:24 AM CST 5:52 PM CST
Astronomical Twilight 5:48 AM CST 6:27 PM CST
Moon 8:05 AM CST (11/25) 5:07 PM CST (11/25)
Length of Visible Light 10h 14m
Length of Day
9h 08m
New Moon, 0% of the Moon is Illuminated
Nov 25
New Moon
Dec 2
First Quarter
Dec 10
Full
Dec 17
Last Quarter
Dec 24
New

Hourly Weather History & Observations

Time (CST) Temp. Windchill Dew Point Humidity Pressure Visibility Wind Dir Wind Speed Gust Speed Precip Events Conditions
12:14 AM 37.4 °F - 33.8 °F 87% 29.64 in 10.0 mi Calm Calm - N/A   Clear
12:34 AM 37.4 °F 32.1 °F 32.0 °F 81% 29.64 in 10.0 mi West 6.9 mph - N/A   Clear
12:53 AM 39.2 °F 35.9 °F 33.8 °F 81% 29.63 in 10.0 mi West 4.6 mph - N/A   Clear
1:14 AM 39.2 °F 35.0 °F 33.8 °F 81% 29.63 in 10.0 mi WNW 5.8 mph - N/A   Clear
1:33 AM 39.2 °F - 33.8 °F 81% 29.63 in 10.0 mi Calm Calm - N/A   Clear
1:54 AM 39.2 °F - 33.8 °F 81% 29.65 in 10.0 mi Calm Calm - N/A   Clear
2:14 AM 39.2 °F - 33.8 °F 81% 29.66 in 10.0 mi Calm Calm - N/A   Clear
2:34 AM 37.4 °F - 32.0 °F 81% 29.66 in 10.0 mi Calm Calm - N/A   Clear
2:53 AM 39.2 °F - 33.8 °F 81% 29.65 in 10.0 mi Calm Calm - N/A   Clear
3:13 AM 35.6 °F - 32.0 °F 87% 29.64 in 10.0 mi Calm Calm - N/A   Clear
3:33 AM 35.6 °F 30.7 °F 32.0 °F 87% 29.64 in 10.0 mi North 5.8 mph - N/A   Clear
3:53 AM 35.6 °F 30.7 °F 32.0 °F 87% 29.64 in 10.0 mi NNE 5.8 mph - N/A   Clear
4:34 AM 33.8 °F 27.7 °F 30.2 °F 87% 29.64 in 7.0 mi North 6.9 mph - N/A   Clear
4:54 AM 35.6 °F 29.9 °F 32.0 °F 87% 29.65 in 7.0 mi North 6.9 mph - N/A   Clear
5:13 AM 33.8 °F 27.0 °F 30.2 °F 87% 29.64 in 5.0 mi North 8.1 mph - N/A   Clear
5:34 AM 35.6 °F 29.2 °F 32.0 °F 87% 29.63 in 5.0 mi NNE 8.1 mph - N/A   Clear
5:53 AM 35.6 °F 30.7 °F 33.8 °F 93% 29.65 in 5.0 mi NNE 5.8 mph - N/A   Clear
6:14 AM 33.8 °F - 32.0 °F 93% 29.66 in 5.0 mi Calm Calm - N/A   Clear
6:34 AM 35.6 °F 29.9 °F 32.0 °F 87% 29.66 in 5.0 mi North 6.9 mph - N/A   Clear
6:53 AM 35.6 °F 29.9 °F 33.8 °F 93% 29.64 in 5.0 mi NNE 6.9 mph - N/A   Clear
7:13 AM 35.6 °F 29.9 °F 33.8 °F 93% 29.64 in 5.0 mi NNE 6.9 mph - N/A   Clear
7:33 AM 35.6 °F 29.2 °F 33.8 °F 93% 29.65 in 5.0 mi NNE 8.1 mph - N/A   Clear
7:54 AM 35.6 °F 28.6 °F 33.8 °F 93% 29.65 in 4.0 mi NNE 9.2 mph - N/A   Clear
8:14 AM 35.6 °F 29.9 °F 33.8 °F 93% 29.65 in 3.0 mi NE 6.9 mph - N/A   Clear
8:33 AM 35.6 °F 30.7 °F 32.0 °F 87% 29.65 in 2.5 mi ENE 5.8 mph - N/A   Clear
8:54 AM 37.4 °F 30.8 °F 33.8 °F 87% 29.65 in 3.0 mi North 9.2 mph - N/A   Clear
9:13 AM 37.4 °F 33.8 °F 33.8 °F 87% 29.67 in 3.0 mi NE 4.6 mph - N/A   Clear
9:34 AM 35.6 °F 32.8 °F 33.8 °F 93% 29.67 in 3.0 mi NNE 3.5 mph - N/A   Clear
9:53 AM 37.4 °F 31.4 °F 33.8 °F 87% 29.64 in 3.0 mi NE 8.1 mph - N/A   Clear
10:14 AM 37.4 °F 34.9 °F 35.6 °F 93% 29.66 in 3.0 mi East 3.5 mph - N/A   Clear
10:33 AM 39.2 °F 34.2 °F 35.6 °F 87% 29.64 in 3.0 mi NE 6.9 mph - N/A   Clear
10:53 AM 39.2 °F 33.6 °F 35.6 °F 87% 29.64 in 3.0 mi NE 8.1 mph - N/A   Clear
11:13 AM 39.2 °F 31.2 °F 35.6 °F 87% 29.61 in 3.0 mi East 13.8 mph - N/A   Clear
11:33 AM 39.2 °F 34.2 °F 35.6 °F 87% 29.63 in 3.0 mi NNE 6.9 mph 10.4 mph N/A   Clear
11:54 AM 39.2 °F 31.6 °F 35.6 °F 87% 29.59 in 3.0 mi NE 12.7 mph - N/A   Clear
12:13 PM 41.0 °F 35.2 °F 37.4 °F 87% 29.62 in 5.0 mi NE 9.2 mph - N/A   Clear
12:33 PM 41.0 °F 36.4 °F 37.4 °F 87% 29.62 in 5.0 mi East 6.9 mph - N/A   Clear
1:13 PM 42.8 °F 38.0 °F 37.4 °F 81% 29.62 in 5.0 mi East 8.1 mph - N/A   Haze
1:33 PM 42.8 °F 36.6 °F 37.4 °F 81% 29.59 in 5.0 mi NE 11.5 mph - N/A   Haze
1:54 PM 42.8 °F 38.0 °F 37.4 °F 81% 29.61 in 5.0 mi East 8.1 mph - N/A   Haze
2:13 PM 42.8 °F 36.6 °F 37.4 °F 81% 29.63 in 7.0 mi SE 11.5 mph - N/A   Clear
2:34 PM 42.8 °F 36.6 °F 37.4 °F 81% 29.60 in 7.0 mi East 11.5 mph - N/A   Clear
3:13 PM 41.0 °F 35.8 °F 37.4 °F 87% 29.59 in 7.0 mi ENE 8.1 mph - N/A   Clear
3:34 PM 41.0 °F 35.2 °F 37.4 °F 87% 29.59 in 7.0 mi East 9.2 mph - N/A   Clear
3:53 PM 41.0 °F 34.7 °F 37.4 °F 87% 29.60 in 5.0 mi East 10.4 mph - N/A   Clear
4:13 PM 41.0 °F 33.9 °F 35.6 °F 81% 29.60 in 5.0 mi ESE 12.7 mph - N/A   Haze
4:33 PM 39.2 °F 32.5 °F 35.6 °F 87% 29.61 in 5.0 mi East 10.4 mph - N/A   Clear
4:53 PM 39.2 °F 33.0 °F 35.6 °F 87% 29.60 in 7.0 mi ENE 9.2 mph - N/A   Clear
5:13 PM 39.2 °F 33.0 °F 35.6 °F 87% 29.60 in 5.0 mi ENE 9.2 mph - N/A   Clear
5:33 PM 39.2 °F 33.0 °F 35.6 °F 87% 29.61 in 5.0 mi East 9.2 mph - N/A   Clear
5:54 PM 37.4 °F 31.4 °F 35.6 °F 93% 29.63 in 5.0 mi East 8.1 mph - N/A   Clear
6:14 PM 37.4 °F 31.4 °F 35.6 °F 93% 29.61 in 5.0 mi ENE 8.1 mph - N/A   Scattered Clouds
6:34 PM 39.2 °F 35.0 °F 35.6 °F 87% 29.62 in 7.0 mi ENE 5.8 mph - N/A   Mostly Cloudy
6:53 PM 39.2 °F 34.2 °F 35.6 °F 87% 29.61 in 7.0 mi ENE 6.9 mph - N/A   Scattered Clouds
7:33 PM 39.2 °F 34.2 °F 35.6 °F 87% 29.62 in 7.0 mi East 6.9 mph - N/A   Mostly Cloudy
7:54 PM 39.2 °F 34.2 °F 37.4 °F 93% 29.61 in 7.0 mi East 6.9 mph - N/A   Mostly Cloudy
8:13 PM 39.2 °F 34.2 °F 37.4 °F 93% 29.61 in 7.0 mi East 6.9 mph - N/A   Scattered Clouds
8:34 PM 39.2 °F 34.2 °F 37.4 °F 93% 29.61 in 5.0 mi East 6.9 mph - N/A   Clear
8:54 PM 39.2 °F 34.2 °F 37.4 °F 93% 29.61 in 5.0 mi East 6.9 mph - N/A   Clear
9:13 PM 41.0 °F 37.1 °F 37.4 °F 87% 29.62 in 5.0 mi East 5.8 mph - N/A   Clear
9:34 PM 41.0 °F 36.4 °F 37.4 °F 87% 29.62 in 4.0 mi East 6.9 mph - N/A   Clear
9:53 PM 41.0 °F 37.1 °F 37.4 °F 87% 29.61 in 4.0 mi East 5.8 mph - N/A   Clear
10:13 PM 39.2 °F 37.0 °F 37.4 °F 93% 29.61 in 3.0 mi East 3.5 mph - N/A   Clear
10:33 PM 39.2 °F 37.0 °F 37.4 °F 93% 29.61 in 2.5 mi East 3.5 mph - N/A   Clear
10:53 PM 41.0 °F 37.1 °F 37.4 °F 87% 29.62 in 3.0 mi East 5.8 mph - N/A   Clear
11:14 PM 39.2 °F 37.0 °F 37.4 °F 93% 29.62 in 2.0 mi East 3.5 mph - N/A   Clear
11:33 PM 39.2 °F 35.9 °F 37.4 °F 93% 29.61 in 1.5 mi East 4.6 mph - N/A   Mostly Cloudy
11:54 PM 39.2 °F - 37.4 °F 93% 29.61 in 1.5 mi Calm Calm - N/A   Mostly Cloudy